sensor_id;sensor_type;location;lat;lon;timestamp;temperature;humidity
41471;DHT22;27211;51.220;5.308;2023-12-04T18:55:19;3.10;99.90
41471;DHT22;27211;51.220;5.308;2023-12-04T18:57:45;3.00;99.90
41471;DHT22;27211;51.220;5.308;2023-12-04T19:00:11;3.00;99.90
41471;DHT22;27211;51.220;5.308;2023-12-04T19:02:36;3.10;99.90
41471;DHT22;27211;51.220;5.308;2023-12-04T19:05:02;3.20;99.90
41471;DHT22;27211;51.220;5.308;2023-12-04T19:07:28;3.20;99.90
41471;DHT22;27211;51.220;5.308;2023-12-04T19:09:53;3.10;99.90
41471;DHT22;27211;51.220;5.308;2023-12-04T19:12:19;3.10;99.90
41471;DHT22;27211;51.220;5.308;2023-12-04T19:14:44;3.10;99.90
41471;DHT22;27211;51.220;5.308;2023-12-04T19:17:10;3.10;99.90
41471;DHT22;27211;51.220;5.308;2023-12-04T19:19:35;3.30;99.90
41471;DHT22;27211;51.220;5.308;2023-12-04T19:22:01;3.20;99.90
41471;DHT22;27211;51.220;5.308;2023-12-04T19:24:26;3.10;99.90
41471;DHT22;27211;51.220;5.308;2023-12-04T19:26:52;3.20;99.90
41471;DHT22;27211;51.220;5.308;2023-12-04T19:29:17;3.10;99.90
41471;DHT22;27211;51.220;5.308;2023-12-04T19:31:43;3.20;99.90
41471;DHT22;27211;51.220;5.308;2023-12-04T19:34:09;3.10;99.90
41471;DHT22;27211;51.220;5.308;2023-12-04T19:36:34;3.20;99.90
41471;DHT22;27211;51.220;5.308;2023-12-04T19:39:00;3.40;99.90
41471;DHT22;27211;51.220;5.308;2023-12-04T19:41:29;3.30;99.90
41471;DHT22;27211;51.220;5.308;2023-12-04T19:43:55;3.50;99.90
41471;DHT22;27211;51.220;5.308;2023-12-04T19:46:21;3.40;99.90
41471;DHT22;27211;51.220;5.308;2023-12-04T19:48:46;3.30;99.90
41471;DHT22;27211;51.220;5.308;2023-12-04T19:51:12;3.20;99.90
41471;DHT22;27211;51.220;5.308;2023-12-04T19:53:38;3.30;99.90
41471;DHT22;27211;51.220;5.308;2023-12-04T19:56:10;3.30;99.90
41471;DHT22;27211;51.220;5.308;2023-12-04T19:58:35;3.30;99.90
41471;DHT22;27211;51.220;5.308;2023-12-04T20:01:01;3.60;99.90
41471;DHT22;27211;51.220;5.308;2023-12-04T20:03:27;3.60;99.90
41471;DHT22;27211;51.220;5.308;2023-12-04T20:05:53;3.60;99.90
41471;DHT22;27211;51.220;5.308;2023-12-04T20:08:18;3.60;99.90
41471;DHT22;27211;51.220;5.308;2023-12-04T20:10:44;3.70;99.90
41471;DHT22;27211;51.220;5.308;2023-12-04T20:13:10;3.50;99.90
41471;DHT22;27211;51.220;5.308;2023-12-04T20:15:37;3.60;99.90
41471;DHT22;27211;51.220;5.308;2023-12-04T20:18:03;3.50;99.90
41471;DHT22;27211;51.220;5.308;2023-12-04T20:20:29;3.50;99.90
41471;DHT22;27211;51.220;5.308;2023-12-04T20:22:54;3.60;99.90
41471;DHT22;27211;51.220;5.308;2023-12-04T20:25:20;3.50;99.90
41471;DHT22;27211;51.220;5.308;2023-12-04T20:27:45;3.40;99.90
41471;DHT22;27211;51.220;5.308;2023-12-04T20:30:11;3.50;99.90
41471;DHT22;27211;51.220;5.308;2023-12-04T20:32:37;3.50;99.90
41471;DHT22;27211;51.220;5.308;2023-12-04T20:35:05;3.50;99.90
41471;DHT22;27211;51.220;5.308;2023-12-04T20:37:31;3.50;99.90
41471;DHT22;27211;51.220;5.308;2023-12-04T20:39:57;3.50;99.90
41471;DHT22;27211;51.220;5.308;2023-12-04T20:42:22;3.60;99.90
41471;DHT22;27211;51.220;5.308;2023-12-04T20:44:48;3.60;99.90
41471;DHT22;27211;51.220;5.308;2023-12-04T20:47:14;3.70;99.90
41471;DHT22;27211;51.220;5.308;2023-12-04T20:49:40;3.60;99.90
41471;DHT22;27211;51.220;5.308;2023-12-04T20:52:05;3.50;99.90
41471;DHT22;27211;51.220;5.308;2023-12-04T20:54:31;3.40;99.90
41471;DHT22;27211;51.220;5.308;2023-12-04T20:56:57;3.40;99.90
41471;DHT22;27211;51.220;5.308;2023-12-04T20:59:23;3.40;99.90
41471;DHT22;27211;51.220;5.308;2023-12-04T21:01:49;3.30;99.90
41471;DHT22;27211;51.220;5.308;2023-12-04T21:04:15;3.40;99.90
41471;DHT22;27211;51.220;5.308;2023-12-04T21:06:40;3.50;99.90
41471;DHT22;27211;51.220;5.308;2023-12-04T21:09:06;3.40;99.90
41471;DHT22;27211;51.220;5.308;2023-12-04T21:11:33;3.50;99.90
41471;DHT22;27211;51.220;5.308;2023-12-04T21:13:59;3.70;99.90
41471;DHT22;27211;51.220;5.308;2023-12-04T21:16:25;3.50;99.90
41471;DHT22;27211;51.220;5.308;2023-12-04T21:18:50;3.60;99.90
41471;DHT22;27211;51.220;5.308;2023-12-04T21:21:16;3.70;99.90
41471;DHT22;27211;51.220;5.308;2023-12-04T21:23:43;3.70;99.90
41471;DHT22;27211;51.220;5.308;2023-12-04T21:26:09;3.70;99.90
41471;DHT22;27211;51.220;5.308;2023-12-04T21:28:35;3.70;99.90
41471;DHT22;27211;51.220;5.308;2023-12-04T21:31:00;3.70;99.90
41471;DHT22;27211;51.220;5.308;2023-12-04T21:33:26;3.80;99.90
41471;DHT22;27211;51.220;5.308;2023-12-04T21:35:52;3.90;99.90
41471;DHT22;27211;51.220;5.308;2023-12-04T21:38:17;3.80;99.90
41471;DHT22;27211;51.220;5.308;2023-12-04T21:40:43;3.70;99.90
41471;DHT22;27211;51.220;5.308;2023-12-04T21:43:12;3.60;99.90
41471;DHT22;27211;51.220;5.308;2023-12-04T21:45:38;3.60;99.90
41471;DHT22;27211;51.220;5.308;2023-12-04T21:48:04;3.60;99.90
41471;DHT22;27211;51.220;5.308;2023-12-04T21:50:29;3.60;99.90
41471;DHT22;27211;51.220;5.308;2023-12-04T21:52:56;3.60;99.90
41471;DHT22;27211;51.220;5.308;2023-12-04T21:55:21;3.60;99.90
41471;DHT22;27211;51.220;5.308;2023-12-04T21:57:47;3.80;99.90
41471;DHT22;27211;51.220;5.308;2023-12-04T22:00:13;3.70;99.90
41471;DHT22;27211;51.220;5.308;2023-12-04T22:02:40;3.80;99.90
41471;DHT22;27211;51.220;5.308;2023-12-04T22:05:05;3.80;99.90
41471;DHT22;27211;51.220;5.308;2023-12-04T22:07:31;3.70;99.90
41471;DHT22;27211;51.220;5.308;2023-12-04T22:09:57;3.70;99.90
41471;DHT22;27211;51.220;5.308;2023-12-04T22:12:22;3.70;99.90
41471;DHT22;27211;51.220;5.308;2023-12-04T22:14:48;3.90;99.90
41471;DHT22;27211;51.220;5.308;2023-12-04T22:17:13;4.00;99.90
41471;DHT22;27211;51.220;5.308;2023-12-04T22:19:39;4.20;99.90
41471;DHT22;27211;51.220;5.308;2023-12-04T22:22:05;4.10;99.90
41471;DHT22;27211;51.220;5.308;2023-12-04T22:24:30;4.00;99.90
41471;DHT22;27211;51.220;5.308;2023-12-04T22:26:56;4.00;99.90
41471;DHT22;27211;51.220;5.308;2023-12-04T22:29:22;4.00;99.90
41471;DHT22;27211;51.220;5.308;2023-12-04T22:31:47;4.00;99.90
41471;DHT22;27211;51.220;5.308;2023-12-04T22:34:13;3.90;99.90
41471;DHT22;27211;51.220;5.308;2023-12-04T22:36:39;3.80;99.90
41471;DHT22;27211;51.220;5.308;2023-12-04T22:39:06;3.90;99.90
41471;DHT22;27211;51.220;5.308;2023-12-04T22:41:31;4.10;99.90
41471;DHT22;27211;51.220;5.308;2023-12-04T22:43:57;4.20;99.90
41471;DHT22;27211;51.220;5.308;2023-12-04T22:46:22;4.10;99.90
41471;DHT22;27211;51.220;5.308;2023-12-04T22:48:48;4.10;99.90
41471;DHT22;27211;51.220;5.308;2023-12-04T22:51:14;4.10;99.90
41471;DHT22;27211;51.220;5.308;2023-12-04T22:53:41;4.20;99.90
41471;DHT22;27211;51.220;5.308;2023-12-04T22:56:10;4.00;99.90
41471;DHT22;27211;51.220;5.308;2023-12-04T22:58:38;4.00;99.90
41471;DHT22;27211;51.220;5.308;2023-12-04T23:01:03;4.00;99.90
41471;DHT22;27211;51.220;5.308;2023-12-04T23:03:29;4.00;99.90
41471;DHT22;27211;51.220;5.308;2023-12-04T23:05:55;4.00;99.90
41471;DHT22;27211;51.220;5.308;2023-12-04T23:08:20;4.10;99.90
41471;DHT22;27211;51.220;5.308;2023-12-04T23:10:46;4.00;99.90
41471;DHT22;27211;51.220;5.308;2023-12-04T23:13:11;4.10;99.90
41471;DHT22;27211;51.220;5.308;2023-12-04T23:15:37;4.10;99.90
41471;DHT22;27211;51.220;5.308;2023-12-04T23:18:03;4.20;99.90
41471;DHT22;27211;51.220;5.308;2023-12-04T23:20:29;4.20;99.90
41471;DHT22;27211;51.220;5.308;2023-12-04T23:22:55;4.30;99.90
41471;DHT22;27211;51.220;5.308;2023-12-04T23:25:20;4.50;99.90
41471;DHT22;27211;51.220;5.308;2023-12-04T23:27:46;4.70;99.90
41471;DHT22;27211;51.220;5.308;2023-12-04T23:30:12;4.50;99.90
41471;DHT22;27211;51.220;5.308;2023-12-04T23:32:37;4.40;99.90
41471;DHT22;27211;51.220;5.308;2023-12-04T23:35:03;4.40;99.90
41471;DHT22;27211;51.220;5.308;2023-12-04T23:37:31;4.40;99.90
41471;DHT22;27211;51.220;5.308;2023-12-04T23:39:57;4.30;99.90
41471;DHT22;27211;51.220;5.308;2023-12-04T23:42:22;4.40;99.90
41471;DHT22;27211;51.220;5.308;2023-12-04T23:44:48;4.50;99.90
41471;DHT22;27211;51.220;5.308;2023-12-04T23:47:13;4.70;99.90
41471;DHT22;27211;51.220;5.308;2023-12-04T23:49:39;4.60;99.90
41471;DHT22;27211;51.220;5.308;2023-12-04T23:52:05;4.60;99.90
41471;DHT22;27211;51.220;5.308;2023-12-04T23:54:30;4.50;99.90
41471;DHT22;27211;51.220;5.308;2023-12-04T23:56:56;4.70;99.90
41471;DHT22;27211;51.220;5.308;2023-12-04T23:59:22;4.70;99.90
